createdAt,value
2018-09-19T00:02:09.029Z,58.27
2018-09-19T00:04:39.118Z,58.17
2018-09-19T00:07:11.952Z,58.31
2018-09-19T00:09:42.459Z,58.14
2018-09-19T00:12:13.860Z,58.09
2018-09-19T00:14:45.388Z,58.48
2018-09-19T00:17:16.034Z,57.22
2018-09-19T00:19:46.311Z,57.66
2018-09-19T00:22:17.591Z,57.90
2018-09-19T00:24:47.832Z,57.68
2018-09-19T00:27:19.804Z,57.89
2018-09-19T00:29:50.181Z,58.21
2018-09-19T00:32:20.298Z,57.79
2018-09-19T00:34:50.280Z,58.16
2018-09-19T00:37:20.864Z,59.09
2018-09-19T00:39:50.780Z,57.98
2018-09-19T00:42:22.316Z,58.38
2018-09-19T00:44:53.249Z,58.19
2018-09-19T00:47:23.325Z,58.83
2018-09-19T00:49:54.129Z,57.78
2018-09-19T00:52:24.543Z,57.99
2018-09-19T00:54:55.490Z,57.85
2018-09-19T00:57:26.400Z,57.85
2018-09-19T00:59:56.719Z,58.27
2018-09-19T01:02:27.561Z,58.91
2018-09-19T01:04:58.067Z,57.92
2018-09-19T01:07:28.569Z,58.77
2018-09-19T01:09:59.113Z,58.40
2018-09-19T01:12:28.965Z,57.78
2018-09-19T01:14:59.478Z,58.32
2018-09-19T01:17:31.338Z,57.84
2018-09-19T01:20:01.308Z,58.24
2018-09-19T01:22:31.564Z,58.72
2018-09-19T01:25:01.490Z,58.43
2018-09-19T01:27:31.457Z,59.05
2018-09-19T01:30:02.078Z,58.22
2018-09-19T01:32:32.744Z,58.58
2018-09-19T01:35:06.717Z,59.10
2018-09-19T01:37:37.259Z,58.85
2018-09-19T01:40:07.838Z,58.35
2018-09-19T01:42:38.398Z,58.43
2018-09-19T01:45:08.620Z,58.09
2018-09-19T01:47:38.921Z,58.00
2018-09-19T01:50:09.518Z,58.43
2018-09-19T01:52:40.280Z,58.40
2018-09-19T01:55:10.632Z,58.63
2018-09-19T01:57:40.815Z,58.25
2018-09-19T02:00:11.125Z,58.31
2018-09-19T02:02:41.138Z,58.22
2018-09-19T02:05:11.091Z,58.45
2018-09-19T02:07:42.760Z,57.98
2018-09-19T02:10:14.749Z,58.07
2018-09-19T02:12:44.867Z,58.79
2018-09-19T02:15:15.542Z,58.09
2018-09-19T02:17:45.539Z,57.96
2018-09-19T02:20:16.020Z,57.84
2018-09-19T02:22:46.212Z,58.79
2018-09-19T02:25:16.287Z,58.30
2018-09-19T02:27:46.874Z,58.00
2018-09-19T02:30:17.463Z,58.36
2018-09-19T02:32:47.870Z,58.58
2018-09-19T02:35:17.703Z,58.41
2018-09-19T02:37:48.067Z,58.40
2018-09-19T02:40:18.321Z,58.80
2018-09-19T02:42:48.553Z,58.79
2018-09-19T02:45:19.172Z,58.84
2018-09-19T02:47:49.361Z,58.77
2018-09-19T02:50:19.873Z,58.37
2018-09-19T02:52:57.077Z,57.77
2018-09-19T02:55:27.620Z,58.07
2018-09-19T02:57:57.860Z,58.54
2018-09-19T03:00:27.816Z,57.87
2018-09-19T03:02:57.850Z,58.63
2018-09-19T03:05:28.014Z,58.54
2018-09-19T03:07:58.296Z,58.14
2018-09-19T03:10:28.889Z,58.23
2018-09-19T03:12:59.757Z,58.00
2018-09-19T03:15:30.368Z,57.73
2018-09-19T03:18:01.013Z,58.93
2018-09-19T03:20:32.803Z,58.34
2018-09-19T03:23:04.100Z,57.97
2018-09-19T03:25:34.315Z,58.05
2018-09-19T03:28:05.666Z,57.71
2018-09-19T03:30:37.129Z,58.24
2018-09-19T03:33:07.060Z,58.12
2018-09-19T03:35:37.662Z,57.98
2018-09-19T03:38:07.985Z,57.26
2018-09-19T03:40:38.537Z,58.10
2018-09-19T03:43:09.245Z,57.91
2018-09-19T03:45:39.530Z,58.53
2018-09-19T03:48:10.232Z,57.73
2018-09-19T03:50:40.838Z,58.37
2018-09-19T03:53:10.852Z,58.07
2018-09-19T03:55:41.066Z,57.44
2018-09-19T03:58:11.488Z,57.79
2018-09-19T04:00:41.581Z,58.69
2018-09-19T04:03:11.835Z,59.59
2018-09-19T04:05:41.887Z,58.62
2018-09-19T04:08:12.237Z,58.70
2018-09-19T04:10:42.100Z,58.34
2018-09-19T04:13:12.185Z,59.31
2018-09-19T04:15:42.363Z,58.95
2018-09-19T04:18:12.865Z,58.91
2018-09-19T04:20:43.137Z,59.11
2018-09-19T04:23:13.220Z,59.87
2018-09-19T04:25:43.722Z,58.90
2018-09-19T04:28:13.887Z,59.65
2018-09-19T04:30:44.438Z,59.85
2018-09-19T04:33:15.581Z,60.48
2018-09-19T04:35:45.562Z,61.70
2018-09-19T04:38:16.286Z,62.42
2018-09-19T04:40:46.886Z,62.67
2018-09-19T04:43:16.820Z,63.64
2018-09-19T04:45:47.273Z,63.27
2018-09-19T04:48:17.979Z,63.66
2018-09-19T04:50:48.063Z,63.96
2018-09-19T04:53:18.973Z,64.65
2018-09-19T04:55:48.741Z,64.44
2018-09-19T04:58:18.973Z,64.16
2018-09-19T05:00:49.345Z,64.89
2018-09-19T05:03:19.357Z,65.34
2018-09-19T05:05:49.550Z,65.83
2018-09-19T05:08:19.938Z,67.16
2018-09-19T05:10:50.518Z,67.61
2018-09-19T05:13:23.002Z,67.99
2018-09-19T05:15:52.924Z,67.44
2018-09-19T05:18:23.253Z,67.16
2018-09-19T05:20:54.039Z,67.52
2018-09-19T05:23:24.332Z,67.96
2018-09-19T05:25:56.282Z,68.19
2018-09-19T05:28:26.635Z,67.91
2018-09-19T05:30:56.772Z,67.46
2018-09-19T05:33:27.459Z,68.00
2018-09-19T05:35:58.025Z,68.27
2018-09-19T05:38:28.411Z,68.59
2018-09-19T05:40:58.753Z,68.31
2018-09-19T05:43:29.680Z,68.34
2018-09-19T05:45:59.877Z,68.74
2018-09-19T05:48:30.914Z,68.21
2018-09-19T05:51:03.857Z,68.69
2018-09-19T05:53:34.408Z,69.42
2018-09-19T05:56:04.750Z,69.37
2018-09-19T05:58:34.955Z,69.70
2018-09-19T06:01:04.916Z,70.36
2018-09-19T06:03:35.432Z,69.51
2018-09-19T06:06:07.198Z,69.42
2018-09-19T06:08:37.809Z,69.40
2018-09-19T06:11:09.824Z,68.80
2018-09-19T06:13:41.942Z,68.61
2018-09-19T06:16:12.900Z,68.39
2018-09-19T06:18:44.369Z,68.76
2018-09-19T06:21:16.162Z,68.68
2018-09-19T06:23:48.922Z,69.05
2018-09-19T06:26:18.760Z,68.28
2018-09-19T06:28:49.262Z,68.53
2018-09-19T06:31:19.380Z,67.67
2018-09-19T06:33:49.398Z,67.31
2018-09-19T06:36:19.903Z,67.12
2018-09-19T06:38:49.958Z,66.87
2018-09-19T06:41:19.969Z,65.98
2018-09-19T06:43:50.175Z,66.32
2018-09-19T06:46:19.942Z,66.10
2018-09-19T06:48:50.595Z,65.76
2018-09-19T06:51:21.050Z,65.21
2018-09-19T06:53:51.502Z,64.86
2018-09-19T06:56:21.618Z,65.32
2018-09-19T06:58:51.836Z,64.17
2018-09-19T07:01:21.845Z,64.08
2018-09-19T07:03:52.494Z,63.73
2018-09-19T07:06:23.332Z,63.41
2018-09-19T07:08:53.602Z,62.84
2018-09-19T07:11:24.236Z,62.21
2018-09-19T07:13:54.406Z,62.02
2018-09-19T07:16:24.883Z,62.11
2018-09-19T07:18:55.237Z,61.29
2018-09-19T07:21:26.122Z,60.66
2018-09-19T07:23:56.079Z,59.59
2018-09-19T07:26:28.671Z,60.04
2018-09-19T07:28:59.983Z,58.69
2018-09-19T07:31:33.185Z,58.96
2018-09-19T07:34:05.479Z,58.36
2018-09-19T07:36:37.802Z,58.66
2018-09-19T07:39:10.982Z,57.98
2018-09-19T07:41:41.004Z,57.28
2018-09-19T07:44:20.888Z,56.12
2018-09-19T07:46:51.397Z,55.78
2018-09-19T07:49:28.925Z,56.26
2018-09-19T07:51:59.519Z,55.63
2018-09-19T07:54:30.545Z,54.72
2018-09-19T07:57:04.122Z,54.57
2018-09-19T07:59:39.088Z,53.75
2018-09-19T08:02:10.390Z,54.49
2018-09-19T08:04:42.950Z,54.13
2018-09-19T08:07:15.582Z,53.79
2018-09-19T08:09:48.080Z,52.76
2018-09-19T08:12:20.500Z,52.08
2018-09-19T08:14:50.574Z,51.74
2018-09-19T08:17:20.706Z,51.19
2018-09-19T08:19:54.556Z,51.13
2018-09-19T08:22:26.276Z,50.90
2018-09-19T08:24:56.485Z,50.40
2018-09-19T08:27:27.344Z,49.70
2018-09-19T08:30:02.120Z,48.85
2018-09-19T08:32:34.631Z,48.88
2018-09-19T08:35:05.810Z,48.53
2018-09-19T08:38:06.569Z,49.12
2018-09-19T08:40:36.797Z,49.26
2018-09-19T08:43:06.835Z,47.96
2018-09-19T08:45:36.724Z,48.37
2018-09-19T08:48:06.882Z,48.41
2018-09-19T08:50:38.543Z,47.78
2018-09-19T08:53:08.584Z,47.11
2018-09-19T08:55:40.625Z,46.89
2018-09-19T08:58:15.469Z,45.92
2018-09-19T09:00:46.543Z,46.76
2018-09-19T09:03:19.020Z,44.85
2018-09-19T09:05:51.178Z,45.45
2018-09-19T09:08:22.179Z,45.19
2018-09-19T09:11:00.631Z,43.59
2018-09-19T09:13:37.131Z,44.65
2018-09-19T09:16:07.148Z,43.65
2018-09-19T09:18:44.634Z,43.35
2018-09-19T09:21:26.762Z,43.24
2018-09-19T09:24:14.890Z,44.01
2018-09-19T09:26:50.595Z,43.33
2018-09-19T09:29:21.884Z,43.44
2018-09-19T09:31:52.043Z,43.26
2018-09-19T09:34:22.520Z,43.06
2018-09-19T09:36:54.422Z,43.33
2018-09-19T09:39:26.694Z,43.10
2018-09-19T09:41:57.443Z,42.70
2018-09-19T09:44:28.426Z,43.91
2018-09-19T09:47:03.835Z,43.32
2018-09-19T09:49:36.751Z,43.10
2018-09-19T09:52:10.818Z,43.83
2018-09-19T09:54:43.002Z,43.50
2018-09-19T09:57:17.701Z,41.48
2018-09-19T10:00:05.097Z,42.51
2018-09-19T10:02:48.268Z,41.91
2018-09-19T10:05:22.026Z,41.37
2018-09-19T10:07:54.544Z,41.65
2018-09-19T10:10:25.834Z,40.97
2018-09-19T10:12:57.250Z,41.36
2018-09-19T10:15:28.880Z,40.15
2018-09-19T10:18:02.794Z,39.98
2018-09-19T10:20:36.306Z,40.18
2018-09-19T10:23:10.025Z,39.48
2018-09-19T10:25:47.629Z,39.44
2018-09-19T10:28:21.248Z,39.81
2018-09-19T10:30:51.908Z,38.60
2018-09-19T10:33:22.857Z,37.93
2018-09-19T10:35:55.892Z,37.88
2018-09-19T10:38:30.603Z,37.32
2018-09-19T10:41:10.768Z,38.04
2018-09-19T10:43:44.873Z,37.77
2018-09-19T10:46:15.760Z,35.85
2018-09-19T10:48:49.567Z,36.11
2018-09-19T10:51:22.129Z,36.01
2018-09-19T10:53:56.854Z,35.58
2018-09-19T10:56:30.099Z,35.63
2018-09-19T10:59:04.117Z,35.69
2018-09-19T11:01:39.823Z,36.24
2018-09-19T11:04:11.734Z,35.88
2018-09-19T11:06:44.711Z,35.06
2018-09-19T11:09:20.324Z,35.27
2018-09-19T11:11:54.489Z,34.40
2018-09-19T11:14:26.739Z,34.38
2018-09-19T11:17:00.071Z,35.49
2018-09-19T11:19:34.659Z,35.37
2018-09-19T11:22:06.799Z,36.36
2018-09-19T11:24:42.876Z,36.34
2018-09-19T11:27:19.079Z,36.83
2018-09-19T11:29:55.048Z,35.28
2018-09-19T11:32:30.612Z,36.38
2018-09-19T11:35:02.676Z,35.82
2018-09-19T11:37:37.001Z,35.25
2018-09-19T11:40:10.505Z,36.35
2018-09-19T11:42:46.054Z,35.92
2018-09-19T11:45:27.340Z,35.60
2018-09-19T11:48:00.152Z,35.49
2018-09-19T11:50:33.669Z,34.82
2018-09-19T11:53:05.608Z,35.42
2018-09-19T11:55:35.516Z,35.92
2018-09-19T11:58:05.663Z,35.54
2018-09-19T12:00:36.301Z,35.64
2018-09-19T12:03:11.000Z,34.35
2018-09-19T12:05:44.372Z,34.33
2018-09-19T12:08:17.234Z,34.84
2018-09-19T12:10:50.261Z,35.52
2018-09-19T12:13:22.247Z,35.25
2018-09-19T12:15:54.626Z,34.32
2018-09-19T12:18:25.615Z,34.77
2018-09-19T12:20:58.240Z,34.45
2018-09-19T12:23:29.616Z,35.06
2018-09-19T12:26:00.032Z,35.22
2018-09-19T12:28:29.992Z,34.13
2018-09-19T12:30:59.914Z,34.92
2018-09-19T12:33:30.550Z,35.70
2018-09-19T12:36:00.703Z,35.54
2018-09-19T12:38:31.142Z,35.00
2018-09-19T12:41:01.331Z,35.39
2018-09-19T12:43:31.339Z,34.21
2018-09-19T12:46:02.077Z,34.87
2018-09-19T12:48:35.108Z,34.59
2018-09-19T12:51:07.363Z,34.23
2018-09-19T12:53:42.287Z,34.60
2018-09-19T12:56:13.696Z,33.43
2018-09-19T12:58:44.365Z,34.83
2018-09-19T13:01:17.193Z,33.88
2018-09-19T13:03:49.395Z,34.81
2018-09-19T13:06:20.884Z,33.88
2018-09-19T13:08:51.965Z,33.66
2018-09-19T13:11:24.648Z,33.59
2018-09-19T13:13:56.076Z,33.88
2018-09-19T13:16:27.192Z,33.69
2018-09-19T13:18:58.683Z,33.37
2018-09-19T13:21:29.131Z,33.93
2018-09-19T13:24:02.852Z,32.80
2018-09-19T13:26:34.624Z,33.52
2018-09-19T13:29:05.662Z,33.35
2018-09-19T13:31:36.921Z,33.70
2018-09-19T13:34:07.556Z,33.53
2018-09-19T13:36:41.783Z,32.52
2018-09-19T13:39:13.851Z,33.38
2018-09-19T13:41:43.799Z,33.43
2018-09-19T13:44:14.615Z,32.85
2018-09-19T13:46:45.284Z,32.38
2018-09-19T13:49:50.788Z,32.52
2018-09-19T13:52:23.431Z,33.27
2018-09-19T13:54:53.945Z,32.73
2018-09-19T13:57:23.887Z,32.03
2018-09-19T13:59:56.717Z,32.40
2018-09-19T14:02:33.848Z,32.96
2018-09-19T14:05:06.301Z,32.13
2018-09-19T14:07:40.476Z,31.83
2018-09-19T14:10:18.829Z,32.92
2018-09-19T14:12:51.367Z,32.20
2018-09-19T14:15:28.451Z,33.14
2018-09-19T14:18:00.447Z,33.35
2018-09-19T14:20:35.065Z,33.26
2018-09-19T14:23:07.696Z,32.28
2018-09-19T14:25:42.196Z,33.34
2018-09-19T14:28:15.703Z,32.89
2018-09-19T14:30:46.130Z,32.07
2018-09-19T14:33:16.529Z,33.00
2018-09-19T14:35:47.339Z,32.40
2018-09-19T14:38:19.168Z,31.86
2018-09-19T14:40:50.211Z,32.01
2018-09-19T14:43:20.728Z,32.59
2018-09-19T14:45:51.067Z,31.90
2018-09-19T14:48:23.190Z,32.99
2018-09-19T14:50:54.161Z,32.06
2018-09-19T14:53:30.267Z,32.12
2018-09-19T14:56:03.940Z,31.41
2018-09-19T14:58:35.761Z,32.89
2018-09-19T15:01:09.903Z,32.17
2018-09-19T15:03:41.898Z,31.90
2018-09-19T15:06:13.129Z,31.54
2018-09-19T15:08:45.841Z,32.05
2018-09-19T15:11:16.507Z,32.06
2018-09-19T15:13:47.287Z,32.84
2018-09-19T15:16:20.936Z,32.65
2018-09-19T15:18:54.625Z,32.24
2018-09-19T15:21:31.195Z,32.68
2018-09-19T15:24:07.208Z,32.81
2018-09-19T15:26:44.771Z,32.62
2018-09-19T15:29:18.607Z,33.59
2018-09-19T15:31:51.218Z,33.84
2018-09-19T15:34:24.430Z,33.85
2018-09-19T15:36:58.674Z,33.02
2018-09-19T15:39:31.011Z,33.99
2018-09-19T15:42:05.164Z,33.11
2018-09-19T15:44:43.069Z,33.85
2018-09-19T15:47:15.758Z,33.73
2018-09-19T15:49:46.715Z,33.10
2018-09-19T15:52:23.675Z,33.34
2018-09-19T15:54:55.044Z,33.64
2018-09-19T15:57:26.023Z,34.17
2018-09-19T15:59:58.212Z,33.65
2018-09-19T16:02:29.171Z,34.19
2018-09-19T16:05:01.349Z,34.88
2018-09-19T16:07:34.123Z,35.17
2018-09-19T16:10:10.872Z,35.01
2018-09-19T16:12:42.785Z,34.51
2018-09-19T16:15:14.525Z,34.87
2018-09-19T16:17:45.346Z,34.93
2018-09-19T16:20:18.598Z,35.53
2018-09-19T16:22:50.157Z,35.93
2018-09-19T16:25:23.473Z,35.07
2018-09-19T16:28:01.182Z,36.01
2018-09-19T16:30:31.449Z,36.14
2018-09-19T16:33:01.614Z,36.23
2018-09-19T16:35:33.565Z,35.72
2018-09-19T16:38:06.739Z,37.34
2018-09-19T16:40:42.269Z,37.51
2018-09-19T16:43:15.654Z,37.32
2018-09-19T16:45:53.997Z,36.83
2018-09-19T16:48:25.623Z,37.69
2018-09-19T16:51:05.863Z,37.13
2018-09-19T16:53:37.038Z,38.18
2018-09-19T16:56:12.527Z,38.09
2018-09-19T16:58:44.475Z,37.42
2018-09-19T17:01:19.187Z,37.65
2018-09-19T17:03:50.194Z,38.80
2018-09-19T17:06:21.402Z,38.84
2018-09-19T17:08:53.369Z,38.10
2018-09-19T17:11:23.741Z,39.00
2018-09-19T17:13:57.346Z,38.68
2018-09-19T17:16:31.411Z,38.73
2018-09-19T17:19:06.784Z,39.04
2018-09-19T17:21:42.813Z,39.90
2018-09-19T17:24:15.095Z,39.96
2018-09-19T17:26:46.407Z,39.51
2018-09-19T17:29:21.989Z,39.41
2018-09-19T17:31:54.116Z,39.70
2018-09-19T17:34:25.252Z,40.60
2018-09-19T17:36:56.049Z,39.75
2018-09-19T17:39:29.150Z,41.32
2018-09-19T17:42:00.519Z,40.39
2018-09-19T17:44:30.926Z,41.79
2018-09-19T17:47:02.347Z,41.78
2018-09-19T17:49:34.348Z,41.46
2018-09-19T17:52:05.350Z,42.02
2018-09-19T17:54:41.299Z,42.60
2018-09-19T17:57:13.331Z,41.83
2018-09-19T17:59:44.437Z,42.76
2018-09-19T18:02:15.491Z,42.46
2018-09-19T18:04:46.524Z,42.69
2018-09-19T18:07:17.954Z,42.68
2018-09-19T18:09:48.427Z,43.79
2018-09-19T18:12:18.491Z,43.91
2018-09-19T18:14:50.192Z,44.25
2018-09-19T18:17:21.038Z,43.65
2018-09-19T18:19:50.924Z,43.96
2018-09-19T18:22:21.794Z,44.79
2018-09-19T18:24:52.254Z,44.83
2018-09-19T18:27:23.074Z,45.29
2018-09-19T18:29:53.026Z,45.56
2018-09-19T18:32:23.106Z,44.91
2018-09-19T18:34:53.381Z,45.23
2018-09-19T18:37:24.182Z,46.16
2018-09-19T18:39:54.319Z,45.67
2018-09-19T18:42:25.075Z,46.69
2018-09-19T18:44:56.510Z,46.84
2018-09-19T18:47:28.170Z,47.11
2018-09-19T18:49:59.202Z,47.88
2018-09-19T18:52:29.901Z,47.76
2018-09-19T18:55:02.975Z,47.61
2018-09-19T18:57:35.988Z,47.51
2018-09-19T19:00:11.553Z,48.58
2018-09-19T19:02:51.283Z,48.37
2018-09-19T19:05:23.078Z,48.33
2018-09-19T19:08:03.668Z,49.10
2018-09-19T19:10:34.252Z,49.47
2018-09-19T19:13:07.105Z,49.04
2018-09-19T19:15:37.998Z,48.56
2018-09-19T19:18:12.732Z,49.72
2018-09-19T19:20:44.778Z,48.93
2018-09-19T19:23:17.085Z,49.78
2018-09-19T19:25:50.156Z,49.23
2018-09-19T19:28:23.236Z,49.84
2018-09-19T19:30:55.186Z,49.21
2018-09-19T19:33:28.530Z,50.23
2018-09-19T19:36:01.785Z,49.76
2018-09-19T19:38:32.132Z,50.62
2018-09-19T19:41:07.515Z,50.03
2018-09-19T19:45:03.761Z,50.13
2018-09-19T19:47:35.452Z,50.04
2018-09-19T19:50:07.736Z,49.84
2018-09-19T19:52:38.691Z,50.43
2018-09-19T19:55:09.006Z,49.98
2018-09-19T19:57:39.402Z,49.54
2018-09-19T20:00:11.285Z,50.52
2018-09-19T20:02:42.103Z,49.96
2018-09-19T20:05:12.450Z,50.81
2018-09-19T20:07:42.508Z,50.90
2018-09-19T20:10:15.561Z,50.17
2018-09-19T20:12:46.067Z,51.02
2018-09-19T20:15:17.135Z,49.92
2018-09-19T20:17:47.807Z,50.39
2018-09-19T20:20:18.708Z,50.69
2018-09-19T20:22:50.346Z,50.42
2018-09-19T20:25:20.850Z,50.26
2018-09-19T20:27:51.506Z,50.73
2018-09-19T20:30:21.532Z,51.26
2018-09-19T20:32:54.340Z,51.26
2018-09-19T20:35:24.941Z,51.39
2018-09-19T20:37:55.474Z,50.75
2018-09-19T20:40:25.560Z,50.67
2018-09-19T20:42:58.652Z,51.85
2018-09-19T20:45:28.886Z,52.13
2018-09-19T20:47:59.590Z,51.99
2018-09-19T20:50:31.370Z,52.29
2018-09-19T20:53:03.716Z,51.75
2018-09-19T20:55:35.013Z,51.44
2018-09-19T20:58:05.138Z,51.64
2018-09-19T21:00:35.643Z,52.53
2018-09-19T21:03:06.902Z,51.99
2018-09-19T21:05:36.918Z,52.06
2018-09-19T21:08:06.773Z,52.43
2018-09-19T21:10:36.746Z,52.95
2018-09-19T21:13:07.386Z,53.31
2018-09-19T21:15:37.574Z,52.81
2018-09-19T21:18:08.017Z,53.61
2018-09-19T21:20:37.818Z,53.95
2018-09-19T21:23:07.880Z,53.42
2018-09-19T21:25:37.833Z,53.80
2018-09-19T21:28:08.066Z,54.02
2018-09-19T21:30:38.140Z,53.75
2018-09-19T21:33:08.505Z,54.19
2018-09-19T21:35:38.318Z,54.74
2018-09-19T21:38:08.614Z,54.86
2018-09-19T21:40:38.720Z,54.58
2018-09-19T21:43:09.245Z,55.28
2018-09-19T21:45:40.028Z,54.98
2018-09-19T21:48:10.338Z,54.79
2018-09-19T21:50:40.294Z,54.74
2018-09-19T21:53:10.697Z,55.72
2018-09-19T21:55:41.742Z,55.92
2018-09-19T21:58:12.479Z,55.97
2018-09-19T22:00:50.212Z,56.05
2018-09-19T22:03:21.474Z,55.91
2018-09-19T22:05:52.113Z,56.21
2018-09-19T22:08:22.768Z,55.93
2018-09-19T22:10:52.991Z,55.54
2018-09-19T22:13:24.058Z,56.71
2018-09-19T22:15:54.062Z,56.70
2018-09-19T22:18:24.806Z,56.75
2018-09-19T22:20:56.025Z,56.40
2018-09-19T22:23:26.357Z,56.86
2018-09-19T22:25:57.023Z,56.27
2018-09-19T22:28:27.079Z,55.83
2018-09-19T22:30:58.006Z,56.04
2018-09-19T22:33:29.315Z,56.62
2018-09-19T22:35:59.851Z,56.27
2018-09-19T22:38:33.270Z,56.34
2018-09-19T22:41:03.466Z,56.77
2018-09-19T22:43:33.273Z,56.37
2018-09-19T22:46:04.347Z,56.25
2018-09-19T22:48:34.605Z,56.38
2018-09-19T22:51:04.528Z,56.77
2018-09-19T22:53:35.891Z,56.73
2018-09-19T22:56:06.411Z,56.43
2018-09-19T22:58:36.771Z,56.32
2018-09-19T23:01:07.354Z,56.35
2018-09-19T23:03:37.876Z,56.86
2018-09-19T23:06:07.821Z,56.29
2018-09-19T23:08:40.413Z,56.04
2018-09-19T23:11:10.918Z,56.83
2018-09-19T23:13:40.885Z,57.02
2018-09-19T23:16:11.015Z,56.46
2018-09-19T23:18:40.981Z,56.28
2018-09-19T23:21:11.268Z,56.67
2018-09-19T23:23:41.463Z,55.91
2018-09-19T23:26:11.308Z,56.06
2018-09-19T23:28:41.539Z,56.56
2018-09-19T23:31:12.764Z,56.12
2018-09-19T23:33:42.699Z,56.59
2018-09-19T23:36:12.856Z,55.66
2018-09-19T23:38:43.421Z,55.99
2018-09-19T23:41:14.308Z,56.04
2018-09-19T23:43:44.229Z,56.56
2018-09-19T23:46:15.853Z,55.88
2018-09-19T23:48:46.321Z,55.98
2018-09-19T23:51:16.992Z,56.35
2018-09-19T23:53:48.479Z,56.58
2018-09-19T23:56:20.856Z,56.31
2018-09-19T23:58:51.141Z,56.32
